Time;durP1;ratioP1;P1;durP2;ratioP2;P2;SDS_P1;SDS_P2;PMS_P1;PMS_P2;Temp;Humidity;BMP_temperature;BMP_pressure;BME280_temperature;BME280_humidity;BME280_pressure;Samples;Min_cycle;Max_cycle;Signal;HPM_P1;HPM_P2
2021/08/09 00:06:09;;;;;;;1.13;0.60;;;21.10;62.70;;;;;;21079220;28;20046;-20
2021/08/09 00:16:09;;;;;;;1.50;0.70;;;21.10;62.70;;;;;;21078501;28;20492;-20
2021/08/09 00:26:10;;;;;;;0.90;0.57;;;21.10;62.80;;;;;;21076091;28;20103;-20
2021/08/09 00:36:11;;;;;;;1.17;0.70;;;21.10;62.70;;;;;;21074935;28;20522;-20
2021/08/09 00:46:11;;;;;;;1.08;0.60;;;21.10;62.70;;;;;;21072305;28;20561;-20
2021/08/09 00:56:13;;;;;;;1.70;0.77;;;21.10;62.70;;;;;;21072701;28;20051;-20
2021/08/09 01:06:15;;;;;;;1.80;0.95;;;21.10;62.70;;;;;;21071204;28;20038;-22
2021/08/09 01:16:15;;;;;;;1.52;0.77;;;21.00;62.70;;;;;;21070797;28;20115;-20
2021/08/09 01:26:27;;;;;;;0.90;0.60;;;21.10;62.70;;;;;;21073103;28;20068;-21
2021/08/09 01:36:29;;;;;;;1.15;0.57;;;21.10;62.60;;;;;;21072544;28;20447;-20
2021/08/09 01:46:32;;;;;;;0.82;0.60;;;21.00;62.60;;;;;;21070304;28;20054;-19
2021/08/09 01:56:33;;;;;;;2.10;0.70;;;21.00;62.60;;;;;;21068368;28;20032;-20
2021/08/09 02:06:33;;;;;;;1.92;0.70;;;21.10;62.60;;;;;;21068781;28;20036;-20
2021/08/09 02:16:53;;;;;;;1.20;0.80;;;21.00;62.50;;;;;;21070344;28;20064;-20
2021/08/09 02:27:02;;;;;;;0.95;0.60;;;21.00;62.60;;;;;;21066820;28;20495;-20
2021/08/09 02:37:06;;;;;;;1.08;0.60;;;21.00;62.50;;;;;;21067110;28;20044;-20
2021/08/09 02:47:10;;;;;;;1.48;0.60;;;21.00;62.50;;;;;;21066291;28;20048;-20
2021/08/09 02:57:12;;;;;;;1.60;0.75;;;21.00;62.50;;;;;;21066813;28;20032;-21
2021/08/09 03:07:13;;;;;;;0.82;0.57;;;21.00;62.50;;;;;;21071452;28;20036;-20
2021/08/09 03:17:13;;;;;;;0.75;0.68;;;21.00;62.50;;;;;;21079909;28;20039;-21
2021/08/09 03:27:14;;;;;;;1.03;0.73;;;21.00;62.50;;;;;;21079406;28;20116;-19
2021/08/09 03:37:14;;;;;;;0.90;0.60;;;21.00;62.50;;;;;;21078207;28;20032;-20
2021/08/09 03:47:16;;;;;;;0.77;0.45;;;21.00;62.50;;;;;;21077240;28;20478;-21
2021/08/09 03:57:17;;;;;;;0.90;0.60;;;21.00;62.50;;;;;;21076601;28;20426;-21
2021/08/09 04:07:17;;;;;;;0.60;0.30;;;21.00;62.70;;;;;;21075777;28;20044;-21
2021/08/09 04:17:18;;;;;;;0.93;0.50;;;21.00;62.40;;;;;;21074895;28;20040;-21
2021/08/09 04:27:18;;;;;;;2.88;0.80;;;21.00;62.40;;;;;;21075021;28;20472;-21
2021/08/09 04:37:20;;;;;;;2.08;0.70;;;21.00;62.40;;;;;;21073835;28;20032;-21
2021/08/09 04:47:20;;;;;;;1.70;0.75;;;21.00;62.50;;;;;;21072394;28;20036;-21
2021/08/09 04:57:21;;;;;;;1.75;0.88;;;21.00;62.40;;;;;;21072678;28;20052;-21
2021/08/09 05:07:21;;;;;;;0.73;0.50;;;21.00;62.40;;;;;;21071610;28;20040;-20
2021/08/09 05:17:22;;;;;;;1.50;0.70;;;21.00;62.40;;;;;;21070804;28;20465;-21
2021/08/09 05:27:22;;;;;;;0.90;0.60;;;20.90;62.40;;;;;;21069735;28;20082;-20
2021/08/09 05:37:23;;;;;;;0.95;0.50;;;21.00;62.40;;;;;;21070945;28;20091;-21
2021/08/09 05:47:23;;;;;;;1.20;0.77;;;21.00;62.40;;;;;;21076507;28;20036;-20
2021/08/09 05:57:24;;;;;;;1.15;0.70;;;21.00;62.40;;;;;;21068510;28;20036;-21
2021/08/09 06:07:24;;;;;;;1.98;0.68;;;21.00;62.40;;;;;;21068338;28;20102;-21
2021/08/09 06:17:25;;;;;;;1.02;0.70;;;21.00;62.40;;;;;;21072019;28;20349;-21
2021/08/09 06:27:26;;;;;;;2.70;0.80;;;20.90;62.40;;;;;;21067201;28;20096;-20
2021/08/09 06:37:26;;;;;;;1.40;0.88;;;20.90;62.40;;;;;;21067347;28;20446;-21
2021/08/09 06:47:27;;;;;;;0.90;0.55;;;20.90;62.40;;;;;;21082775;28;20024;-21
2021/08/09 06:57:27;;;;;;;3.05;0.63;;;21.00;62.30;;;;;;21082420;28;20038;-21
2021/08/09 07:07:28;;;;;;;2.05;0.70;;;21.00;62.30;;;;;;21081230;28;20113;-21
2021/08/09 07:17:28;;;;;;;1.17;0.82;;;21.00;62.30;;;;;;21080815;28;20036;-21
2021/08/09 07:27:29;;;;;;;1.00;0.60;;;21.00;62.30;;;;;;21080313;28;20032;-21
2021/08/09 07:37:30;;;;;;;0.75;0.50;;;21.00;62.30;;;;;;21080936;28;20036;-20
2021/08/09 07:47:31;;;;;;;1.40;0.70;;;21.00;62.20;;;;;;21081406;28;20032;-21
2021/08/09 07:57:31;;;;;;;1.43;0.80;;;21.00;62.20;;;;;;21079643;28;20511;-21
2021/08/09 08:07:32;;;;;;;0.90;0.50;;;21.00;62.10;;;;;;21079131;28;20036;-21
2021/08/09 08:17:33;;;;;;;1.90;0.73;;;21.00;62.00;;;;;;21077862;28;20068;-21
2021/08/09 08:27:34;;;;;;;1.45;0.50;;;21.10;62.00;;;;;;21075526;28;20126;-21
2021/08/09 08:37:35;;;;;;;0.88;0.52;;;21.10;62.00;;;;;;21075124;28;20071;-20
2021/08/09 08:47:36;;;;;;;1.08;0.70;;;21.10;61.90;;;;;;21073975;28;20036;-23
2021/08/09 08:57:36;;;;;;;1.35;0.75;;;21.10;61.90;;;;;;21073646;28;20043;-21
2021/08/09 09:07:42;;;;;;;1.50;0.77;;;21.10;61.90;;;;;;21072064;28;20040;-22
2021/08/09 09:17:43;;;;;;;1.05;0.82;;;21.00;61.80;;;;;;21072404;28;20043;-21
2021/08/09 09:27:43;;;;;;;1.05;0.47;;;21.10;61.90;;;;;;21072384;28;20496;-21
2021/08/09 09:37:50;;;;;;;1.98;0.85;;;21.10;61.90;;;;;;21071029;28;20036;-21
2021/08/09 09:48:09;;;;;;;1.35;0.60;;;21.10;61.90;;;;;;21070025;28;20032;-21
2021/08/09 09:58:10;;;;;;;0.80;0.60;;;21.20;61.90;;;;;;21069899;28;20060;-21
2021/08/09 10:08:15;;;;;;;2.20;0.90;;;21.10;61.90;;;;;;21068616;28;20097;-21
2021/08/09 10:18:23;;;;;;;2.38;0.80;;;21.10;61.90;;;;;;21081059;28;20040;-21
2021/08/09 10:28:43;;;;;;;2.42;0.60;;;21.10;61.80;;;;;;21100383;28;20067;-21
2021/08/09 10:38:44;;;;;;;2.33;0.43;;;21.10;61.80;;;;;;21087624;28;20178;-21
2021/08/09 10:48:48;;;;;;;5.30;0.70;;;21.10;61.80;;;;;;21084651;28;20035;-20
2021/08/09 10:58:53;;;;;;;1.20;0.65;;;21.10;61.80;;;;;;21083615;28;20044;-21
2021/08/09 11:08:54;;;;;;;1.00;0.60;;;21.10;61.80;;;;;;21117340;22;20072;-20
2021/08/09 11:18:58;;;;;;;0.63;0.38;;;21.10;61.80;;;;;;21083034;28;20040;-19
2021/08/09 11:28:58;;;;;;;0.77;0.60;;;21.10;61.80;;;;;;21081728;28;20070;-19
2021/08/09 11:39:01;;;;;;;0.57;0.43;;;21.10;61.80;;;;;;21082730;28;20043;-19
2021/08/09 11:49:08;;;;;;;1.25;0.63;;;21.10;61.90;;;;;;21078950;28;20494;-19
2021/08/09 11:59:11;;;;;;;1.77;0.70;;;21.10;61.90;;;;;;21077637;28;20103;-19
2021/08/09 12:09:13;;;;;;;0.93;0.57;;;21.10;61.90;;;;;;21077356;28;20454;-19
2021/08/09 12:19:15;;;;;;;1.70;0.75;;;21.10;61.90;;;;;;21075986;28;20024;-19
2021/08/09 12:29:21;;;;;;;1.77;0.85;;;21.10;62.00;;;;;;21075259;28;20237;-19
2021/08/09 12:39:30;;;;;;;1.58;0.77;;;21.10;62.50;;;;;;21076187;28;20385;-20
2021/08/09 12:49:31;;;;;;;1.52;0.60;;;21.10;62.00;;;;;;21080816;28;20499;-20
2021/08/09 12:59:32;;;;;;;0.93;0.53;;;21.10;62.00;;;;;;21075418;28;20106;-20
2021/08/09 13:09:33;;;;;;;1.27;0.70;;;21.10;61.90;;;;;;21074893;28;20465;-20
2021/08/09 13:19:34;;;;;;;1.63;0.50;;;21.10;62.00;;;;;;21073750;28;20028;-20
2021/08/09 13:29:34;;;;;;;1.77;0.82;;;21.10;61.80;;;;;;21075853;28;20039;-19
2021/08/09 13:39:35;;;;;;;0.98;0.60;;;21.10;61.80;;;;;;21072733;28;20054;-19
2021/08/09 13:49:36;;;;;;;0.97;0.40;;;21.10;61.90;;;;;;21070539;28;20115;-19
2021/08/09 13:59:37;;;;;;;1.25;0.63;;;21.10;62.00;;;;;;21070673;28;20055;-19
2021/08/09 14:09:38;;;;;;;0.80;0.60;;;21.10;62.00;;;;;;21069613;28;20407;-19
2021/08/09 14:19:38;;;;;;;2.90;0.90;;;21.10;62.10;;;;;;21067439;28;20537;-19
2021/08/09 14:29:39;;;;;;;1.13;0.60;;;21.10;62.10;;;;;;21067334;28;20040;-19
2021/08/09 14:39:39;;;;;;;1.05;0.55;;;21.10;62.00;;;;;;21067643;28;20384;-19
2021/08/09 14:49:40;;;;;;;1.42;0.47;;;21.10;62.00;;;;;;21066941;28;20411;-19
2021/08/09 14:59:41;;;;;;;1.23;0.50;;;21.10;62.00;;;;;;21067407;28;20062;-20
2021/08/09 15:09:41;;;;;;;1.05;0.50;;;21.10;62.10;;;;;;21083029;28;20107;-20
2021/08/09 15:19:42;;;;;;;1.20;0.53;;;21.10;62.10;;;;;;21082461;28;20525;-20
2021/08/09 15:29:43;;;;;;;1.00;0.60;;;21.10;62.00;;;;;;21082559;28;20236;-19
2021/08/09 15:39:43;;;;;;;1.50;0.67;;;21.10;62.10;;;;;;21082474;28;20039;-20
2021/08/09 15:49:45;;;;;;;0.93;0.50;;;21.10;62.10;;;;;;21083843;28;20427;-20
2021/08/09 15:59:46;;;;;;;1.70;0.60;;;21.10;62.20;;;;;;21085622;28;20450;-20
2021/08/09 16:09:46;;;;;;;1.35;0.88;;;21.10;62.20;;;;;;21093973;28;20035;-20
2021/08/09 16:19:47;;;;;;;0.95;0.47;;;21.10;62.30;;;;;;21094406;28;20038;-20
2021/08/09 16:29:48;;;;;;;1.77;0.50;;;21.10;62.30;;;;;;21085083;28;20040;-20
2021/08/09 16:39:48;;;;;;;1.33;0.60;;;21.10;62.60;;;;;;21078546;28;20039;-20
2021/08/09 16:49:49;;;;;;;1.05;0.60;;;21.10;62.60;;;;;;21077611;28;20028;-19
2021/08/09 16:59:50;;;;;;;1.50;0.70;;;21.10;62.50;;;;;;21097879;22;20040;-20
2021/08/09 17:09:50;;;;;;;1.13;0.50;;;21.10;62.50;;;;;;20988441;28;20037;-21
2021/08/09 17:19:51;;;;;;;1.20;0.60;;;21.10;62.20;;;;;;20987372;28;20478;-20
2021/08/09 17:29:51;;;;;;;1.13;0.50;;;21.10;62.40;;;;;;20986671;28;20025;-20
2021/08/09 17:39:53;;;;;;;2.40;1.15;;;21.10;62.20;;;;;;20986737;28;20045;-20
2021/08/09 17:49:53;;;;;;;0.95;0.60;;;21.10;62.20;;;;;;20986979;28;20044;-21
2021/08/09 17:59:54;;;;;;;3.13;0.70;;;21.10;62.20;;;;;;20985386;28;20044;-21
2021/08/09 18:09:56;;;;;;;1.52;0.50;;;21.10;62.30;;;;;;20984407;28;20040;-21
2021/08/09 18:19:58;;;;;;;3.78;0.82;;;21.10;62.40;;;;;;20984226;28;20037;-21
2021/08/09 18:29:59;;;;;;;3.35;0.60;;;21.10;62.30;;;;;;20983208;28;20039;-21
2021/08/09 18:40:00;;;;;;;2.28;0.52;;;21.10;62.40;;;;;;20994002;28;20112;-21
2021/08/09 18:50:01;;;;;;;1.23;0.68;;;21.10;62.40;;;;;;20998434;28;20031;-21
2021/08/09 19:00:03;;;;;;;3.60;0.70;;;21.10;62.50;;;;;;20998644;28;20040;-21
2021/08/09 19:10:06;;;;;;;1.55;0.60;;;21.00;62.50;;;;;;20997733;28;20047;-21
2021/08/09 19:20:07;;;;;;;1.08;0.55;;;21.00;62.50;;;;;;20996635;28;20040;-20
2021/08/09 19:30:08;;;;;;;1.88;0.60;;;21.00;62.50;;;;;;20996123;28;20058;-20
2021/08/09 19:40:09;;;;;;;1.35;0.50;;;21.00;62.60;;;;;;21011911;28;20041;-20
2021/08/09 19:50:10;;;;;;;1.23;0.50;;;21.00;62.60;;;;;;20996772;28;20036;-20
2021/08/09 20:00:12;;;;;;;1.33;0.68;;;21.00;62.60;;;;;;20999819;28;20075;-20
2021/08/09 20:10:13;;;;;;;1.73;0.82;;;21.00;62.60;;;;;;21004744;28;20036;-24
2021/08/09 20:20:14;;;;;;;0.73;0.50;;;21.00;62.70;;;;;;21014786;28;20032;-21
2021/08/09 20:30:15;;;;;;;2.10;0.50;;;21.00;62.70;;;;;;20993207;28;20032;-21
2021/08/09 20:40:16;;;;;;;1.20;0.60;;;21.00;62.70;;;;;;20990317;28;20028;-21
2021/08/09 20:50:16;;;;;;;2.63;1.23;;;21.00;62.70;;;;;;20989510;28;20496;-21
2021/08/09 21:00:17;;;;;;;1.25;0.70;;;21.00;62.70;;;;;;20989123;28;20036;-21
2021/08/09 21:10:17;;;;;;;1.08;0.50;;;20.90;62.70;;;;;;20988603;28;20043;-19
2021/08/09 21:20:18;;;;;;;1.77;1.30;;;20.90;62.60;;;;;;20989672;28;20036;-21
2021/08/09 21:30:19;;;;;;;1.38;0.57;;;20.90;62.60;;;;;;20995760;28;20094;-21
2021/08/09 21:40:19;;;;;;;1.30;0.80;;;20.90;62.60;;;;;;20986990;28;20107;-21
2021/08/09 21:50:20;;;;;;;0.82;0.60;;;20.90;62.60;;;;;;20985522;28;20112;-21
2021/08/09 22:00:23;;;;;;;0.50;0.40;;;20.90;62.60;;;;;;20984980;28;20051;-21
2021/08/09 22:10:23;;;;;;;1.17;0.70;;;20.90;62.60;;;;;;20990826;28;20497;-21
2021/08/09 22:20:24;;;;;;;1.25;0.77;;;20.90;62.60;;;;;;21011439;28;20127;-21
2021/08/09 22:30:25;;;;;;;1.63;0.80;;;20.90;62.60;;;;;;21011194;28;20306;-22
2021/08/09 22:40:26;;;;;;;1.10;0.57;;;20.90;62.60;;;;;;21010684;28;20044;-21
2021/08/09 22:50:26;;;;;;;0.80;0.60;;;20.90;62.60;;;;;;21010584;28;20039;-21
2021/08/09 23:00:27;;;;;;;0.70;0.50;;;20.90;62.60;;;;;;21025979;28;20169;-21
2021/08/09 23:10:27;;;;;;;1.17;0.50;;;20.90;62.60;;;;;;21009607;28;20061;-20
2021/08/09 23:20:28;;;;;;;2.03;0.68;;;20.90;62.60;;;;;;21006106;28;20033;-20
2021/08/09 23:30:28;;;;;;;1.17;0.68;;;20.90;62.60;;;;;;20995870;28;20493;-21
2021/08/09 23:40:29;;;;;;;1.03;0.57;;;20.90;62.60;;;;;;20995042;28;20493;-21
2021/08/09 23:50:29;;;;;;;0.85;0.57;;;20.80;62.50;;;;;;20995750;28;20044;-20
